Time;durP1;ratioP1;P1;durP2;ratioP2;P2;SDS_P1;SDS_P2;PMS_P1;PMS_P2;Temp;Humidity;BMP_temperature;BMP_pressure;BME280_temperature;BME280_humidity;BME280_pressure;Samples;Min_cycle;Max_cycle;Signal;HPM_P1;HPM_P2
2022/12/31 00:01:54;;;;;;;10.90;3.13;;;11.20;91.90;;;;;;5032101;28;20029;-49
2022/12/31 00:04:20;;;;;;;11.77;2.63;;;11.20;91.80;;;;;;5025662;28;20061;-45
2022/12/31 00:06:47;;;;;;;9.50;2.67;;;11.20;91.90;;;;;;5020024;28;20355;-46
2022/12/31 00:09:14;;;;;;;8.05;2.63;;;11.20;91.90;;;;;;5032349;28;20034;-48
2022/12/31 00:11:41;;;;;;;11.18;3.05;;;11.20;91.80;;;;;;5016960;28;20040;-47
2022/12/31 00:14:08;;;;;;;12.63;3.35;;;11.20;91.80;;;;;;5012929;28;20632;-46
2022/12/31 00:16:38;;;;;;;11.63;2.88;;;11.20;91.80;;;;;;5026545;28;20040;-47
2022/12/31 00:19:07;;;;;;;11.90;2.90;;;11.20;91.90;;;;;;5030829;28;20120;-49
2022/12/31 00:21:35;;;;;;;13.63;3.13;;;11.20;91.90;;;;;;5032614;28;20031;-46
2022/12/31 00:24:03;;;;;;;10.00;2.22;;;11.20;92.00;;;;;;5031849;28;20037;-48
2022/12/31 00:26:31;;;;;;;11.38;2.38;;;11.20;92.10;;;;;;5024988;28;20069;-46
2022/12/31 00:28:59;;;;;;;9.32;2.88;;;11.20;92.00;;;;;;5033635;28;20111;-47
2022/12/31 00:31:44;;;;;;;10.75;3.30;;;11.20;92.10;;;;;;5032620;28;20029;-47
2022/12/31 00:34:11;;;;;;;10.93;3.17;;;11.20;92.00;;;;;;5031269;28;20072;-45
2022/12/31 00:36:39;;;;;;;11.07;3.05;;;11.10;92.00;;;;;;5025918;28;20036;-48
2022/12/31 00:39:07;;;;;;;9.60;3.05;;;11.10;92.10;;;;;;5031281;28;20033;-45
2022/12/31 00:41:36;;;;;;;13.60;3.17;;;11.10;92.30;;;;;;5025085;28;20036;-48
2022/12/31 00:44:04;;;;;;;14.38;2.42;;;11.10;92.20;;;;;;5031173;28;20362;-51
2022/12/31 00:46:32;;;;;;;8.95;2.20;;;11.10;92.30;;;;;;5037345;28;20029;-46
2022/12/31 00:48:59;;;;;;;9.35;3.30;;;11.10;92.30;;;;;;5036205;28;20022;-46
2022/12/31 00:51:26;;;;;;;13.15;3.00;;;11.10;92.30;;;;;;5032212;28;20050;-49
2022/12/31 00:53:52;;;;;;;10.52;3.10;;;11.00;92.40;;;;;;5029550;28;20034;-46
2022/12/31 00:56:22;;;;;;;12.23;2.78;;;11.10;92.50;;;;;;5034721;28;20478;-47
2022/12/31 00:58:50;;;;;;;6.65;3.20;;;11.10;92.50;;;;;;5028232;28;20501;-50
2022/12/31 01:01:29;;;;;;;8.20;2.17;;;11.10;92.40;;;;;;5012627;28;20034;-46
2022/12/31 01:03:59;;;;;;;9.47;2.50;;;11.10;92.50;;;;;;5012128;28;20037;-47
2022/12/31 01:06:26;;;;;;;6.00;2.85;;;11.10;92.50;;;;;;5023467;28;20715;-52
2022/12/31 01:08:54;;;;;;;9.43;2.63;;;11.10;92.60;;;;;;5011511;28;20034;-49
2022/12/31 01:11:23;;;;;;;6.55;2.10;;;11.10;92.70;;;;;;5016037;28;20029;-47
2022/12/31 01:13:59;;;;;;;10.82;2.80;;;11.10;92.70;;;;;;5030190;28;20025;-45
2022/12/31 01:16:29;;;;;;;7.80;2.30;;;11.10;92.90;;;;;;5032751;28;20036;-49
2022/12/31 01:19:01;;;;;;;7.75;2.50;;;11.00;93.10;;;;;;5022201;28;20045;-44
2022/12/31 01:21:29;;;;;;;9.07;2.60;;;11.10;93.30;;;;;;5030712;28;20040;-47
2022/12/31 01:23:57;;;;;;;6.35;2.40;;;11.10;93.40;;;;;;5031938;28;20363;-44
2022/12/31 01:26:25;;;;;;;9.38;3.20;;;11.00;93.50;;;;;;5029834;28;20028;-43
2022/12/31 01:28:52;;;;;;;8.80;2.90;;;11.10;93.70;;;;;;5031748;28;20041;-43
2022/12/31 01:31:21;;;;;;;7.65;2.95;;;11.00;93.80;;;;;;5034787;28;20120;-45
2022/12/31 01:33:49;;;;;;;10.07;3.15;;;11.00;93.80;;;;;;5034595;28;20029;-43
2022/12/31 01:36:19;;;;;;;9.15;3.10;;;11.00;94.00;;;;;;5033598;28;20152;-43
2022/12/31 01:38:46;;;;;;;12.73;3.63;;;11.00;94.00;;;;;;5036521;28;20037;-47
2022/12/31 01:41:23;;;;;;;7.57;3.50;;;10.90;94.10;;;;;;5038127;28;20029;-48
2022/12/31 01:43:59;;;;;;;8.30;3.20;;;10.90;94.20;;;;;;5015875;28;20626;-44
2022/12/31 01:46:46;;;;;;;8.75;3.35;;;10.90;94.30;;;;;;5050448;28;20541;-44
2022/12/31 01:49:27;;;;;;;6.40;3.40;;;10.90;94.30;;;;;;5035398;28;20038;-44
2022/12/31 01:52:05;;;;;;;10.20;4.25;;;10.90;94.40;;;;;;5017509;28;20120;-44
2022/12/31 01:54:36;;;;;;;14.02;7.05;;;10.90;94.40;;;;;;5035474;28;20032;-45
2022/12/31 01:57:04;;;;;;;8.52;4.15;;;10.90;94.50;;;;;;5028229;28;20041;-44
2022/12/31 01:59:32;;;;;;;11.70;4.28;;;10.90;94.50;;;;;;5014201;28;20386;-44
2022/12/31 02:02:00;;;;;;;13.45;4.13;;;10.90;94.50;;;;;;5009554;28;20036;-45
2022/12/31 02:04:28;;;;;;;8.15;4.68;;;10.90;94.60;;;;;;5035034;28;20048;-46
2022/12/31 02:07:13;;;;;;;9.40;4.13;;;10.90;94.50;;;;;;5039671;28;20639;-45
2022/12/31 02:09:41;;;;;;;8.80;4.63;;;10.90;94.60;;;;;;5034216;28;20033;-47
2022/12/31 02:12:10;;;;;;;8.95;4.38;;;10.90;94.60;;;;;;5033597;28;20037;-44
2022/12/31 02:14:47;;;;;;;12.40;5.18;;;10.90;94.50;;;;;;5033917;28;20037;-44
2022/12/31 02:17:36;;;;;;;15.60;4.95;;;10.90;94.60;;;;;;5053393;28;20029;-46
2022/12/31 02:20:36;;;;;;;5.38;4.18;;;11.00;94.60;;;;;;5043897;28;20029;-46
2022/12/31 02:23:23;;;;;;;9.75;4.85;;;10.90;94.50;;;;;;5054994;28;20055;-47
2022/12/31 02:25:57;;;;;;;11.00;4.32;;;10.90;94.50;;;;;;5053618;28;20032;-44
2022/12/31 02:28:44;;;;;;;13.52;5.63;;;10.90;94.50;;;;;;5036726;28;20033;-45
2022/12/31 02:31:35;;;;;;;7.68;4.38;;;11.00;94.50;;;;;;5027273;28;20041;-43
2022/12/31 02:34:26;;;;;;;7.97;4.35;;;11.00;94.50;;;;;;5029480;28;20026;-48
2022/12/31 02:36:55;;;;;;;11.95;4.68;;;11.00;94.50;;;;;;5032202;28;20026;-46
2022/12/31 02:39:24;;;;;;;9.85;4.90;;;11.00;94.40;;;;;;5031343;28;20340;-48
2022/12/31 02:41:52;;;;;;;9.55;4.55;;;11.00;94.50;;;;;;5037091;28;20035;-46
2022/12/31 02:44:39;;;;;;;9.52;4.93;;;11.00;94.40;;;;;;5016729;28;20483;-43
2022/12/31 02:47:25;;;;;;;8.98;4.72;;;11.00;94.50;;;;;;5033952;28;20025;-44
2022/12/31 02:49:51;;;;;;;10.35;4.10;;;11.10;94.60;;;;;;5043515;28;20029;-48
2022/12/31 02:52:45;;;;;;;6.50;3.78;;;11.00;94.50;;;;;;5042920;28;20389;-49
2022/12/31 02:55:17;;;;;;;10.63;3.92;;;11.00;94.50;;;;;;5054362;28;20037;-43
2022/12/31 03:02:12;;;;;;;9.38;4.45;;;11.00;94.40;;;;;;5039577;28;20060;-46
2022/12/31 03:04:30;;;;;;;8.90;4.25;;;11.00;94.50;;;;;;5016740;28;20424;-44
2022/12/31 03:06:40;;;;;;;7.95;3.75;;;11.10;94.50;;;;;;5033950;28;20045;-46
2022/12/31 03:09:12;;;;;;;13.20;5.28;;;11.10;94.40;;;;;;5033995;28;20025;-45
2022/12/31 03:14:27;;;;;;;8.88;4.43;;;11.10;94.50;;;;;;5034270;28;20092;-43
2022/12/31 03:16:54;;;;;;;8.07;4.63;;;11.10;94.50;;;;;;5029707;28;20670;-46
2022/12/31 03:22:28;;;;;;;6.20;5.50;;;11.20;94.60;;;;;;5033870;28;20032;-44
2022/12/31 03:28:21;;;;;;;14.38;5.05;;;11.10;94.50;;;;;;5032682;28;20403;-45
2022/12/31 03:30:51;;;;;;;12.32;6.68;;;11.10;94.70;;;;;;5053266;28;20091;-46
2022/12/31 03:33:18;;;;;;;7.88;5.18;;;11.20;94.70;;;;;;5053863;28;20018;-44
2022/12/31 03:35:46;;;;;;;8.00;5.15;;;11.20;94.70;;;;;;5038410;28;20383;-44
2022/12/31 03:38:14;;;;;;;7.97;4.78;;;11.20;94.70;;;;;;5019581;28;20103;-45
2022/12/31 03:40:51;;;;;;;9.50;5.72;;;11.20;94.70;;;;;;5032687;28;20100;-44
2022/12/31 03:43:19;;;;;;;8.32;5.53;;;11.20;94.80;;;;;;5030074;28;20343;-43
2022/12/31 03:45:58;;;;;;;7.85;5.43;;;11.10;94.80;;;;;;5020005;28;20442;-43
2022/12/31 03:48:25;;;;;;;9.00;5.60;;;11.10;94.80;;;;;;5025839;28;20120;-50
2022/12/31 03:50:52;;;;;;;11.18;5.70;;;11.10;94.80;;;;;;5031979;28;20474;-43
2022/12/31 03:53:18;;;;;;;6.78;5.53;;;11.10;94.80;;;;;;5012473;28;20033;-45
2022/12/31 03:55:52;;;;;;;11.23;6.05;;;11.10;94.80;;;;;;5019865;28;20022;-44
2022/12/31 03:58:20;;;;;;;8.38;5.50;;;11.00;94.80;;;;;;5013699;28;20029;-46
2022/12/31 04:00:47;;;;;;;9.43;5.53;;;11.00;94.80;;;;;;5013018;28;20423;-48
2022/12/31 04:03:14;;;;;;;10.23;6.35;;;11.00;94.80;;;;;;5023158;28;20088;-44
2022/12/31 04:05:41;;;;;;;9.40;5.93;;;11.00;94.80;;;;;;5031606;28;20060;-43
2022/12/31 04:08:08;;;;;;;7.40;5.88;;;11.00;94.80;;;;;;5032391;28;20017;-47
2022/12/31 04:10:38;;;;;;;11.02;5.60;;;11.00;94.90;;;;;;5032113;28;20458;-43
2022/12/31 04:13:03;;;;;;;7.95;6.18;;;11.00;94.90;;;;;;5014599;28;20506;-47
2022/12/31 04:15:31;;;;;;;11.85;5.80;;;10.90;94.90;;;;;;5013472;28;20054;-44
2022/12/31 04:17:58;;;;;;;14.55;6.13;;;11.00;94.90;;;;;;5037849;28;20033;-45
2022/12/31 04:20:24;;;;;;;10.68;5.72;;;10.90;95.00;;;;;;5030559;28;20030;-44
2022/12/31 04:22:56;;;;;;;8.57;6.03;;;11.00;95.00;;;;;;5023551;28;20065;-44
2022/12/31 04:25:23;;;;;;;10.60;6.40;;;10.90;95.00;;;;;;5033297;28;20029;-44
2022/12/31 04:27:50;;;;;;;8.27;5.53;;;11.00;95.10;;;;;;5025630;28;20037;-43
2022/12/31 04:30:17;;;;;;;7.00;5.40;;;11.10;95.10;;;;;;5032661;28;20033;-45
2022/12/31 04:32:44;;;;;;;9.82;5.97;;;11.00;95.00;;;;;;5032214;28;20021;-46
2022/12/31 04:35:11;;;;;;;8.00;5.85;;;11.10;95.00;;;;;;5033517;28;20065;-43
2022/12/31 04:37:38;;;;;;;8.88;5.55;;;11.00;95.00;;;;;;5019303;28;20080;-44
2022/12/31 04:40:06;;;;;;;9.35;5.80;;;11.10;95.00;;;;;;4995580;28;20025;-44
2022/12/31 04:42:34;;;;;;;11.02;5.90;;;11.00;95.00;;;;;;5018100;28;20022;-44
2022/12/31 04:44:59;;;;;;;11.63;6.43;;;11.10;95.00;;;;;;5012620;28;20030;-45
2022/12/31 04:47:28;;;;;;;10.32;5.72;;;11.10;95.00;;;;;;5011767;28;20037;-44
2022/12/31 04:49:55;;;;;;;6.80;4.82;;;11.10;94.90;;;;;;5029491;28;20029;-45
2022/12/31 04:52:22;;;;;;;10.93;5.50;;;11.10;94.90;;;;;;5031380;28;20044;-44
2022/12/31 04:54:49;;;;;;;6.78;4.75;;;11.10;94.80;;;;;;5031302;28;20084;-43
2022/12/31 04:57:16;;;;;;;6.43;4.18;;;11.10;94.80;;;;;;5026033;28;20083;-45
2022/12/31 04:59:43;;;;;;;7.60;4.70;;;11.10;94.80;;;;;;5012350;28;20115;-43
2022/12/31 05:02:12;;;;;;;8.20;4.72;;;11.00;94.70;;;;;;5017807;28;20070;-46
2022/12/31 05:04:39;;;;;;;7.35;4.40;;;11.10;94.80;;;;;;5018235;28;20112;-46
2022/12/31 05:07:08;;;;;;;6.40;4.30;;;11.00;94.70;;;;;;5015441;28;20116;-48
2022/12/31 05:09:35;;;;;;;9.63;5.38;;;11.00;94.70;;;;;;5019896;28;20050;-45
2022/12/31 05:12:02;;;;;;;5.70;3.70;;;11.00;94.60;;;;;;5026129;28;20044;-45
2022/12/31 05:14:28;;;;;;;10.32;4.22;;;11.00;94.60;;;;;;5035264;28;20030;-43
2022/12/31 05:16:55;;;;;;;7.00;3.80;;;11.00;94.50;;;;;;5031477;28;20061;-46
2022/12/31 05:19:21;;;;;;;7.25;4.07;;;11.00;94.50;;;;;;5033817;28;20029;-46
2022/12/31 05:22:27;;;;;;;6.70;3.45;;;10.90;94.40;;;;;;5036277;28;20430;-43
2022/12/31 05:24:35;;;;;;;8.20;3.08;;;10.90;94.50;;;;;;5016301;28;20034;-46
2022/12/31 05:27:02;;;;;;;8.73;3.92;;;11.00;94.40;;;;;;5019421;28;20444;-46
2022/12/31 05:29:29;;;;;;;6.45;3.53;;;10.90;94.30;;;;;;5019267;28;20026;-43
2022/12/31 05:31:55;;;;;;;8.93;3.10;;;10.90;94.30;;;;;;5032890;28;20385;-46
2022/12/31 05:34:22;;;;;;;6.63;3.25;;;10.90;94.30;;;;;;5029978;28;20051;-43
2022/12/31 05:36:51;;;;;;;5.25;2.72;;;10.90;94.20;;;;;;5035701;28;20033;-43
2022/12/31 05:39:18;;;;;;;3.92;2.25;;;10.90;94.10;;;;;;5027865;28;20041;-45
2022/12/31 05:41:45;;;;;;;5.82;3.83;;;10.90;94.10;;;;;;5025052;28;20049;-44
2022/12/31 05:44:10;;;;;;;3.92;2.03;;;10.90;94.20;;;;;;5024169;28;20052;-43
2022/12/31 05:46:40;;;;;;;8.23;3.10;;;10.90;94.10;;;;;;5023240;28;20045;-47
2022/12/31 05:49:07;;;;;;;5.40;2.28;;;10.90;94.20;;;;;;5026551;28;20033;-45
2022/12/31 05:51:33;;;;;;;6.82;2.60;;;10.90;94.20;;;;;;5025476;28;20394;-48
2022/12/31 05:54:00;;;;;;;6.75;2.60;;;10.90;94.20;;;;;;5024081;28;20109;-46
2022/12/31 05:56:26;;;;;;;4.57;2.50;;;10.90;94.20;;;;;;5027759;28;20017;-48
2022/12/31 05:58:53;;;;;;;4.97;2.55;;;10.90;94.20;;;;;;5024993;28;20048;-51
2022/12/31 06:01:21;;;;;;;4.63;2.13;;;10.90;94.20;;;;;;5023448;28;20022;-48
2022/12/31 06:03:50;;;;;;;5.82;2.08;;;10.80;94.20;;;;;;5026922;28;20075;-49
2022/12/31 06:06:17;;;;;;;4.78;2.00;;;10.80;94.20;;;;;;5034941;28;20068;-48
2022/12/31 06:08:48;;;;;;;6.03;2.05;;;10.90;94.20;;;;;;5035466;28;20044;-47
2022/12/31 06:11:15;;;;;;;5.35;2.20;;;10.80;94.20;;;;;;5030666;28;20029;-46
2022/12/31 06:13:43;;;;;;;3.60;1.73;;;10.80;94.20;;;;;;5049681;28;20091;-46
2022/12/31 06:16:11;;;;;;;6.75;2.30;;;10.80;94.10;;;;;;5050759;28;20496;-46
2022/12/31 06:18:38;;;;;;;4.70;1.88;;;10.80;94.10;;;;;;5051873;28;20107;-46
2022/12/31 06:21:05;;;;;;;5.68;2.15;;;10.80;94.20;;;;;;5055379;28;20050;-46
2022/12/31 06:23:32;;;;;;;2.70;1.65;;;10.80;94.10;;;;;;5030336;28;20033;-46
2022/12/31 06:26:06;;;;;;;5.45;2.45;;;10.80;94.10;;;;;;5018501;28;20049;-48
2022/12/31 06:28:33;;;;;;;5.80;1.92;;;10.70;94.20;;;;;;5028297;28;20110;-46
2022/12/31 06:31:02;;;;;;;4.25;2.00;;;10.70;94.20;;;;;;5054144;28;20036;-46
2022/12/31 06:33:29;;;;;;;3.47;2.35;;;10.70;94.20;;;;;;5050663;28;20105;-46
2022/12/31 06:36:00;;;;;;;5.40;2.22;;;10.70;94.20;;;;;;5034959;28;20459;-45
2022/12/31 06:38:29;;;;;;;5.30;2.45;;;10.70;94.20;;;;;;5034857;28;20037;-46
2022/12/31 06:40:56;;;;;;;5.07;2.30;;;10.70;94.30;;;;;;5031785;28;20044;-46
2022/12/31 06:43:23;;;;;;;6.85;2.70;;;10.70;94.30;;;;;;5033524;28;20032;-51
2022/12/31 06:45:50;;;;;;;4.05;2.40;;;10.60;94.30;;;;;;5034901;28;20092;-54
2022/12/31 06:48:17;;;;;;;4.85;2.58;;;10.60;94.30;;;;;;5025224;28;20074;-57
2022/12/31 06:50:44;;;;;;;4.75;2.47;;;10.70;94.40;;;;;;5033641;28;20447;-64
2022/12/31 06:53:11;;;;;;;4.40;2.75;;;10.60;94.40;;;;;;5039602;28;20048;-64
2022/12/31 06:55:38;;;;;;;4.78;2.22;;;10.60;94.40;;;;;;5042205;28;20372;-64
2022/12/31 06:58:08;;;;;;;3.65;1.77;;;10.60;94.40;;;;;;5023866;28;20053;-63
2022/12/31 07:00:35;;;;;;;6.00;2.97;;;10.60;94.50;;;;;;5024165;28;20134;-64
2022/12/31 07:03:33;;;;;;;4.20;2.03;;;10.60;94.50;;;;;;5023796;28;20030;-62
2022/12/31 07:06:13;;;;;;;4.40;2.58;;;10.50;94.50;;;;;;5025083;28;20057;-62
2022/12/31 07:08:48;;;;;;;;;;;10.60;94.60;;;;;;5017899;28;20160;-62
2022/12/31 07:11:34;;;;;;;5.93;2.67;;;10.60;94.60;;;;;;5017576;28;19955;-62
2022/12/31 07:14:27;;;;;;;5.82;2.50;;;10.60;94.70;;;;;;5016972;28;20041;-61
2022/12/31 07:17:32;;;;;;;5.47;2.63;;;10.50;94.70;;;;;;5029314;28;20761;-61
2022/12/31 07:20:08;;;;;;;4.57;2.55;;;10.50;94.70;;;;;;5025012;28;20050;-60
2022/12/31 07:22:35;;;;;;;7.20;3.30;;;10.50;94.80;;;;;;5027185;28;20030;-59
2022/12/31 07:25:02;;;;;;;4.95;2.90;;;10.50;94.80;;;;;;5029204;28;20021;-58
2022/12/31 07:27:57;;;;;;;4.68;3.15;;;10.50;94.80;;;;;;5030396;28;20394;-59
2022/12/31 07:30:50;;;;;;;6.05;3.28;;;10.50;94.90;;;;;;5022192;28;20021;-59
2022/12/31 07:33:57;;;;;;;6.18;3.38;;;10.50;94.90;;;;;;5027650;28;20114;-56
2022/12/31 07:36:58;;;;;;;9.07;3.83;;;10.50;95.00;;;;;;5022469;28;20151;-56
2022/12/31 07:39:42;;;;;;;4.95;3.53;;;10.50;95.00;;;;;;5023853;28;20164;-56
2022/12/31 07:42:30;;;;;;;5.00;3.20;;;10.50;95.10;;;;;;5026791;28;20030;-58
2022/12/31 07:45:05;;;;;;;4.80;3.35;;;10.50;95.00;;;;;;5032275;28;20041;-56
2022/12/31 07:47:33;;;;;;;5.68;3.10;;;10.40;95.00;;;;;;5034828;28;20421;-58
2022/12/31 07:50:00;;;;;;;7.45;3.28;;;10.40;95.00;;;;;;5015367;28;20554;-57
2022/12/31 07:52:26;;;;;;;5.78;2.67;;;10.40;95.00;;;;;;5012068;28;20420;-58
2022/12/31 07:54:53;;;;;;;4.07;2.80;;;10.40;95.00;;;;;;5041905;28;20048;-59
2022/12/31 07:57:24;;;;;;;6.63;2.55;;;10.40;95.00;;;;;;5023900;28;20045;-60
2022/12/31 08:00:12;;;;;;;4.13;2.60;;;10.40;95.10;;;;;;5031263;28;20030;-59
2022/12/31 08:03:16;;;;;;;5.50;2.13;;;10.40;95.00;;;;;;5030717;28;20049;-58
2022/12/31 08:06:10;;;;;;;5.43;2.30;;;10.40;95.00;;;;;;5028152;28;20568;-59
2022/12/31 08:08:58;;;;;;;3.97;1.83;;;10.40;95.00;;;;;;5017131;28;20068;-60
2022/12/31 08:11:55;;;;;;;4.13;1.67;;;10.30;95.00;;;;;;5013634;28;20034;-59
2022/12/31 08:14:22;;;;;;;3.78;1.52;;;10.30;94.90;;;;;;5009207;28;20042;-59
2022/12/31 08:16:48;;;;;;;3.45;1.52;;;10.30;94.90;;;;;;5022843;28;20473;-59
2022/12/31 08:19:35;;;;;;;7.57;1.83;;;10.30;94.80;;;;;;5012762;28;20025;-60
2022/12/31 08:22:22;;;;;;;3.35;1.08;;;10.20;94.70;;;;;;5005381;28;20049;-60
2022/12/31 08:25:20;;;;;;;3.47;0.90;;;10.10;94.60;;;;;;5005851;28;20064;-59
2022/12/31 08:27:58;;;;;;;4.28;0.73;;;10.00;94.50;;;;;;4998422;28;20116;-62
2022/12/31 08:30:36;;;;;;;2.15;0.73;;;9.90;94.40;;;;;;4995938;28;20037;-64
2022/12/31 08:33:22;;;;;;;2.15;0.82;;;9.90;94.30;;;;;;5012766;28;20141;-64
2022/12/31 08:36:11;;;;;;;3.70;0.98;;;9.90;94.20;;;;;;5012908;28;20022;-63
2022/12/31 08:39:04;;;;;;;2.97;0.80;;;9.80;94.20;;;;;;4998852;28;20030;-63
2022/12/31 08:41:52;;;;;;;2.45;0.70;;;9.80;94.20;;;;;;4999370;28;20281;-61
2022/12/31 08:44:58;;;;;;;1.25;0.55;;;9.80;94.20;;;;;;5012436;28;20026;-60
2022/12/31 08:47:45;;;;;;;4.60;1.13;;;9.80;94.20;;;;;;5009685;28;20034;-59
2022/12/31 08:50:19;;;;;;;2.42;0.90;;;9.80;94.10;;;;;;5011236;28;20069;-59
2022/12/31 08:52:47;;;;;;;4.18;0.95;;;9.80;94.10;;;;;;5004029;28;20605;-60
2022/12/31 08:55:16;;;;;;;3.08;0.55;;;9.70;94.10;;;;;;5001727;28;20080;-61
2022/12/31 08:58:06;;;;;;;2.75;1.30;;;9.70;94.10;;;;;;4998276;28;20038;-62
2022/12/31 09:00:35;;;;;;;1.77;0.70;;;9.80;94.20;;;;;;5004717;28;20082;-62
2022/12/31 09:03:17;;;;;;;1.55;0.60;;;9.70;94.20;;;;;;5004582;28;20022;-62
2022/12/31 09:06:12;;;;;;;1.73;0.45;;;9.80;94.20;;;;;;5020943;28;20037;-62
2022/12/31 09:08:47;;;;;;;3.22;0.80;;;9.80;94.20;;;;;;5030900;28;20045;-62
2022/12/31 09:11:50;;;;;;;5.10;1.25;;;9.70;94.20;;;;;;5023190;28;20469;-61
2022/12/31 09:14:53;;;;;;;2.22;0.93;;;9.70;94.30;;;;;;5023318;28;20026;-61
2022/12/31 09:17:49;;;;;;;2.40;1.15;;;9.70;94.40;;;;;;5030098;28;20037;-60
2022/12/31 09:20:27;;;;;;;2.38;1.05;;;9.80;94.50;;;;;;5029545;28;20351;-58
2022/12/31 09:22:55;;;;;;;3.33;1.20;;;9.80;94.60;;;;;;5026060;28;20084;-59
2022/12/31 09:25:23;;;;;;;3.72;1.75;;;9.90;94.70;;;;;;5021394;28;20048;-60
2022/12/31 09:28:39;;;;;;;2.90;1.48;;;9.90;94.70;;;;;;5028118;28;20040;-59
2022/12/31 09:31:23;;;;;;;2.55;1.23;;;9.90;94.80;;;;;;5030399;28;20049;-61
2022/12/31 09:34:14;;;;;;;4.00;1.40;;;9.90;94.80;;;;;;5023028;28;20041;-63
2022/12/31 09:36:49;;;;;;;3.60;1.40;;;10.00;94.90;;;;;;5046094;28;20086;-62
2022/12/31 09:39:41;;;;;;;2.90;1.70;;;10.00;94.90;;;;;;5052092;28;20086;-62
2022/12/31 09:42:28;;;;;;;3.38;1.50;;;10.00;95.00;;;;;;5021422;28;20080;-63
2022/12/31 09:45:21;;;;;;;2.90;1.73;;;10.00;95.00;;;;;;5019551;28;20426;-63
2022/12/31 09:48:24;;;;;;;5.03;1.92;;;10.00;95.00;;;;;;5014442;28;20027;-63
2022/12/31 09:51:16;;;;;;;2.92;1.92;;;10.10;95.10;;;;;;5020704;28;20030;-61
2022/12/31 09:54:07;;;;;;;3.95;2.28;;;10.20;95.20;;;;;;5036039;28;20117;-60
2022/12/31 09:57:01;;;;;;;4.65;2.75;;;10.20;95.20;;;;;;5028469;28;20030;-59
2022/12/31 09:59:45;;;;;;;4.70;2.75;;;10.20;95.30;;;;;;5027281;28;20052;-59
2022/12/31 10:02:42;;;;;;;4.38;2.53;;;10.30;95.40;;;;;;5022818;28;20433;-58
2022/12/31 10:05:11;;;;;;;4.75;3.22;;;10.30;95.40;;;;;;5015643;28;20046;-52
2022/12/31 10:08:04;;;;;;;4.63;3.28;;;10.40;95.50;;;;;;5021377;28;20030;-55
2022/12/31 10:10:47;;;;;;;4.25;3.15;;;10.40;95.60;;;;;;5035622;28;20039;-53
2022/12/31 10:13:43;;;;;;;5.32;2.83;;;10.50;95.60;;;;;;5049146;28;20076;-52
2022/12/31 10:16:27;;;;;;;5.40;4.00;;;10.60;95.80;;;;;;5035183;28;20064;-50
2022/12/31 10:19:11;;;;;;;4.07;3.13;;;10.80;95.90;;;;;;5028997;28;20529;-52
2022/12/31 10:21:47;;;;;;;5.10;3.55;;;10.90;95.90;;;;;;5035726;28;20045;-50
2022/12/31 10:24:19;;;;;;;5.97;3.22;;;10.90;95.90;;;;;;5055503;28;20017;-53
2022/12/31 10:26:58;;;;;;;12.00;3.30;;;11.00;95.90;;;;;;5040543;28;20430;-47
2022/12/31 10:30:22;;;;;;;4.85;3.17;;;11.10;95.90;;;;;;5034871;28;20102;-51
2022/12/31 10:33:17;;;;;;;3.92;2.83;;;11.20;95.90;;;;;;5013495;28;20742;-49
2022/12/31 10:36:04;;;;;;;3.88;2.95;;;11.30;96.00;;;;;;5017824;28;20044;-49
2022/12/31 10:38:54;;;;;;;5.25;2.50;;;11.40;95.90;;;;;;5021980;28;20035;-48
2022/12/31 10:41:48;;;;;;;8.10;2.55;;;11.50;95.90;;;;;;5045109;28;20033;-50
2022/12/31 10:44:54;;;;;;;7.32;2.08;;;11.60;96.00;;;;;;5015250;28;20096;-46
2022/12/31 10:47:58;;;;;;;3.60;1.95;;;11.70;95.90;;;;;;5021729;28;20056;-49
2022/12/31 10:50:54;;;;;;;3.58;1.90;;;11.80;95.90;;;;;;5017611;28;20455;-50
2022/12/31 10:53:51;;;;;;;4.68;1.80;;;11.90;95.70;;;;;;5034194;28;20048;-53
2022/12/31 10:56:38;;;;;;;4.03;1.92;;;11.90;95.70;;;;;;5034445;28;20450;-56
2022/12/31 10:59:24;;;;;;;4.72;1.42;;;11.90;95.60;;;;;;5020085;28;20677;-62
2022/12/31 11:02:17;;;;;;;4.88;1.80;;;12.00;95.60;;;;;;5035267;28;20036;-58
2022/12/31 11:05:29;;;;;;;3.90;1.75;;;12.10;95.60;;;;;;5029994;28;20045;-60
2022/12/31 11:08:33;;;;;;;3.33;1.38;;;12.10;95.50;;;;;;5021870;28;20077;-58
2022/12/31 11:11:35;;;;;;;3.53;1.63;;;12.10;95.50;;;;;;5028196;28;20068;-55
2022/12/31 11:14:25;;;;;;;4.93;1.40;;;12.10;95.40;;;;;;5020311;28;20069;-49
2022/12/31 11:17:49;;;;;;;3.22;1.38;;;12.20;95.40;;;;;;5034142;28;20033;-50
2022/12/31 11:20:54;;;;;;;5.35;1.60;;;12.30;95.30;;;;;;5027108;28;20030;-50
2022/12/31 11:23:38;;;;;;;3.05;1.75;;;12.50;95.30;;;;;;5031589;28;20447;-50
2022/12/31 11:26:36;;;;;;;3.88;1.08;;;12.50;95.00;;;;;;5034267;28;20036;-49
2022/12/31 11:29:29;;;;;;;3.30;1.13;;;12.60;94.80;;;;;;5020035;28;20388;-48
2022/12/31 11:32:06;;;;;;;2.72;1.13;;;12.60;94.50;;;;;;5021951;28;20068;-50
2022/12/31 11:34:50;;;;;;;5.00;1.17;;;12.70;94.40;;;;;;5045126;28;20032;-47
2022/12/31 11:37:41;;;;;;;6.38;1.52;;;12.90;94.20;;;;;;5052647;28;20021;-47
2022/12/31 11:40:34;;;;;;;3.00;1.15;;;13.00;93.90;;;;;;5034759;28;20025;-49
2022/12/31 11:43:38;;;;;;;4.25;1.52;;;13.10;93.70;;;;;;5025617;28;20029;-50
2022/12/31 11:46:25;;;;;;;11.68;1.88;;;13.20;93.20;;;;;;5033823;28;20030;-47
2022/12/31 11:49:05;;;;;;;4.07;1.17;;;13.40;93.00;;;;;;5032952;28;20454;-49
2022/12/31 11:51:58;;;;;;;3.70;0.93;;;13.40;92.80;;;;;;5040535;28;20033;-49
2022/12/31 11:55:10;;;;;;;3.67;1.02;;;13.50;92.80;;;;;;5018141;28;20029;-48
2022/12/31 11:57:40;;;;;;;7.68;1.42;;;13.50;92.40;;;;;;5021987;28;20124;-46
2022/12/31 12:00:19;;;;;;;4.22;1.17;;;13.60;92.30;;;;;;5026067;28;20113;-45
2022/12/31 12:02:47;;;;;;;5.68;1.25;;;13.60;92.10;;;;;;5020174;28;20022;-47
2022/12/31 12:05:20;;;;;;;5.93;1.15;;;13.70;92.00;;;;;;5024054;28;20104;-47
2022/12/31 12:07:48;;;;;;;4.25;1.10;;;13.70;91.50;;;;;;5022484;28;20100;-47
2022/12/31 12:10:27;;;;;;;4.38;1.33;;;13.80;91.10;;;;;;5023056;28;20025;-48
2022/12/31 12:12:55;;;;;;;5.20;1.40;;;13.80;91.00;;;;;;5016259;28;20037;-44
2022/12/31 12:15:44;;;;;;;7.75;1.38;;;13.80;90.90;;;;;;5016180;28;20033;-45
2022/12/31 12:18:34;;;;;;;5.78;1.10;;;13.70;90.40;;;;;;5026113;28;20099;-48
2022/12/31 12:21:13;;;;;;;5.95;1.65;;;13.70;90.30;;;;;;5022238;28;20046;-47
2022/12/31 12:23:41;;;;;;;6.15;2.00;;;13.80;90.70;;;;;;5017731;28;20075;-46
2022/12/31 12:26:28;;;;;;;5.15;2.15;;;13.80;90.50;;;;;;5026196;28;20350;-47
2022/12/31 12:29:02;;;;;;;4.53;1.30;;;13.80;90.60;;;;;;5031041;28;20033;-45
2022/12/31 12:31:29;;;;;;;8.43;1.65;;;13.70;90.80;;;;;;5032014;28;20033;-45
2022/12/31 12:33:56;;;;;;;6.38;1.52;;;13.70;90.70;;;;;;5030760;28;20397;-45
2022/12/31 12:36:22;;;;;;;6.32;1.77;;;13.60;90.90;;;;;;5032775;28;20454;-44
2022/12/31 12:39:04;;;;;;;7.03;2.13;;;13.60;90.90;;;;;;5047754;28;20044;-47
2022/12/31 12:41:31;;;;;;;5.97;1.42;;;13.60;90.90;;;;;;5042428;28;20029;-45
2022/12/31 12:44:15;;;;;;;6.35;1.58;;;13.70;90.90;;;;;;5015066;28;20026;-44
2022/12/31 12:47:03;;;;;;;5.78;1.70;;;13.60;90.90;;;;;;5025170;28;20028;-45
2022/12/31 12:49:43;;;;;;;8.38;1.52;;;13.60;91.10;;;;;;5029262;28;20075;-48
2022/12/31 12:52:17;;;;;;;7.25;1.52;;;13.60;91.00;;;;;;5027972;28;20120;-45
2022/12/31 12:55:10;;;;;;;6.43;1.35;;;13.70;90.90;;;;;;5031412;28;20029;-45
2022/12/31 12:58:03;;;;;;;7.30;1.60;;;13.60;91.00;;;;;;5022476;28;20037;-46
2022/12/31 13:01:06;;;;;;;7.95;1.60;;;13.60;90.90;;;;;;5019163;28;20452;-45
2022/12/31 13:03:50;;;;;;;6.07;2.13;;;13.60;90.90;;;;;;5024159;28;20335;-47
2022/12/31 13:06:43;;;;;;;5.32;1.35;;;13.60;91.10;;;;;;5019115;28;20041;-52
2022/12/31 13:09:33;;;;;;;5.47;1.52;;;13.70;91.00;;;;;;5020499;28;20029;-46
2022/12/31 13:12:08;;;;;;;10.43;2.58;;;13.80;90.80;;;;;;5016543;28;20034;-47
2022/12/31 13:15:00;;;;;;;4.82;1.60;;;13.80;90.60;;;;;;5019932;28;20033;-48
2022/12/31 13:17:52;;;;;;;3.80;1.17;;;13.80;90.60;;;;;;5018136;28;20060;-45
2022/12/31 13:20:48;;;;;;;7.93;3.38;;;13.80;90.60;;;;;;5023032;28;20124;-50
2022/12/31 13:23:40;;;;;;;7.90;1.27;;;13.70;90.50;;;;;;5028670;28;20065;-49
2022/12/31 13:26:21;;;;;;;6.18;1.33;;;13.80;90.60;;;;;;5026548;28;20033;-49
2022/12/31 13:28:49;;;;;;;3.55;1.20;;;13.80;90.70;;;;;;5029578;28;20447;-47
2022/12/31 13:31:40;;;;;;;6.00;1.50;;;13.80;90.70;;;;;;5029685;28;20029;-47
2022/12/31 13:34:27;;;;;;;4.60;1.33;;;13.90;90.70;;;;;;5022270;28;20097;-47
2022/12/31 13:37:01;;;;;;;4.43;1.05;;;13.90;90.70;;;;;;5030383;28;20037;-51
2022/12/31 13:39:30;;;;;;;4.38;1.20;;;13.90;90.80;;;;;;5013433;28;20126;-48
2022/12/31 13:42:10;;;;;;;4.37;1.20;;;13.80;91.00;;;;;;5027782;28;20112;-49
2022/12/31 13:44:42;;;;;;;6.82;1.52;;;13.80;91.00;;;;;;5029691;28;20713;-50
2022/12/31 13:47:56;;;;;;;7.10;1.63;;;13.80;91.00;;;;;;5030792;28;20091;-49
2022/12/31 13:51:05;;;;;;;5.53;1.25;;;13.80;91.10;;;;;;5019853;28;20046;-47
2022/12/31 13:53:56;;;;;;;4.03;1.45;;;13.80;91.10;;;;;;5016997;28;20184;-53